Terminal Aerodrome Forecast
Issued by NWS

Home | Current Version | Previous Version | Text Only | Print | Product List | Glossary On
Versions: 1 2 3 4 5 6 7 8 9 10 11 12 13 14 15 16 17 18
000
FTUS42 KTAE 191739
TAFABY
TAF
KABY 191739Z 1918/2018 16010KT P6SM BKN015
     FM192100 14008KT P6SM SCT015 BKN050
     FM200600 14004KT 4SM BR SCT250
     FM200900 12006KT 1SM BR OVC007
     FM201500 12007KT P6SM SCT007 OVC015=

USA.gov is the U.S. government's official web portal to all federal, state and local government web resources and services.